Time;durP1;ratioP1;P1;durP2;ratioP2;P2;SDS_P1;SDS_P2;PMS_P1;PMS_P2;Temp;Humidity;BMP_temperature;BMP_pressure;BME280_temperature;BME280_humidity;BME280_pressure;Samples;Min_cycle;Max_cycle;Signal;HPM_P1;HPM_P2
2023/12/06 00:01:40;;;;;;;4.80;2.00;;;5.30;1.00;;;;;;4989808;28;20183;-74
2023/12/06 00:04:05;;;;;;;3.17;2.20;;;5.40;1.00;;;;;;4989382;28;20211;-74
2023/12/06 00:06:31;;;;;;;2.17;1.97;;;5.60;1.00;;;;;;4989313;28;20210;-74
2023/12/06 00:08:56;;;;;;;1.90;1.67;;;5.40;1.00;;;;;;4990516;28;20194;-74
2023/12/06 00:11:22;;;;;;;3.60;2.10;;;5.60;1.00;;;;;;4988667;28;20202;-74
2023/12/06 00:13:47;;;;;;;2.17;1.80;;;5.40;1.00;;;;;;4985766;28;20731;-74
2023/12/06 00:16:13;;;;;;;3.17;1.90;;;5.30;1.00;;;;;;4989388;28;20184;-74
2023/12/06 00:18:41;;;;;;;2.93;1.90;;;5.30;1.00;;;;;;4990443;28;20227;-75
2023/12/06 00:21:07;;;;;;;2.70;2.20;;;5.30;1.00;;;;;;4990220;28;20202;-75
2023/12/06 00:23:32;;;;;;;4.30;2.47;;;5.40;1.00;;;;;;4983297;28;20522;-74
2023/12/06 00:25:58;;;;;;;3.47;2.17;;;5.30;1.00;;;;;;4987473;28;20187;-74
2023/12/06 00:28:24;;;;;;;2.40;2.20;;;5.40;1.00;;;;;;4990172;28;20277;-74
2023/12/06 00:30:49;;;;;;;2.20;1.80;;;5.40;1.00;;;;;;4992324;28;20234;-74
2023/12/06 00:33:15;;;;;;;3.37;2.00;;;5.30;1.00;;;;;;4989312;28;20179;-74
2023/12/06 00:35:40;;;;;;;3.67;2.27;;;5.40;1.00;;;;;;4989543;28;20695;-74
2023/12/06 00:38:06;;;;;;;3.07;2.20;;;5.50;1.00;;;;;;4989908;28;20191;-74
2023/12/06 00:40:31;;;;;;;5.50;2.10;;;5.40;1.00;;;;;;4990092;28;20194;-74
2023/12/06 00:42:57;;;;;;;7.90;2.17;;;5.40;1.00;;;;;;4988730;28;20612;-72
2023/12/06 00:45:22;;;;;;;2.90;2.27;;;5.40;1.00;;;;;;4990173;28;20303;-74
2023/12/06 00:47:48;;;;;;;2.63;2.23;;;5.40;1.00;;;;;;4990206;28;20210;-74
2023/12/06 00:50:14;;;;;;;2.33;2.07;;;5.50;1.00;;;;;;4990767;28;20187;-73
2023/12/06 00:52:39;;;;;;;2.83;1.90;;;5.50;1.00;;;;;;4989805;28;20182;-74
2023/12/06 00:55:05;;;;;;;4.03;2.23;;;5.40;1.00;;;;;;4989289;28;20238;-74
2023/12/06 00:57:30;;;;;;;3.20;2.60;;;5.50;1.00;;;;;;4989329;28;20191;-74
2023/12/06 00:59:56;;;;;;;3.50;2.80;;;5.40;1.00;;;;;;4988479;28;20187;-74
2023/12/06 01:02:21;;;;;;;4.90;2.27;;;5.40;1.00;;;;;;4988457;28;20183;-74
2023/12/06 01:04:50;;;;;;;4.13;2.43;;;5.50;1.00;;;;;;4989455;28;20701;-74
2023/12/06 01:07:19;;;;;;;3.73;2.50;;;5.50;1.00;;;;;;4988933;28;20222;-74
2023/12/06 01:09:45;;;;;;;3.40;2.37;;;5.50;1.00;;;;;;4989742;28;20434;-74
2023/12/06 01:12:10;;;;;;;4.17;2.43;;;5.50;1.00;;;;;;4989645;28;20422;-74
2023/12/06 01:14:36;;;;;;;2.30;2.00;;;5.60;1.00;;;;;;4989816;28;20450;-73
2023/12/06 01:17:02;;;;;;;2.67;2.10;;;5.50;1.00;;;;;;4989983;28;20187;-75
2023/12/06 01:19:27;;;;;;;4.27;2.60;;;5.50;1.00;;;;;;4988654;28;20279;-74
2023/12/06 01:21:53;;;;;;;2.93;2.20;;;5.50;1.00;;;;;;4988880;28;20201;-74
2023/12/06 01:24:18;;;;;;;3.00;2.00;;;5.40;1.00;;;;;;4988720;28;20685;-74
2023/12/06 01:26:44;;;;;;;2.90;2.00;;;5.40;1.00;;;;;;4988305;28;20761;-74
2023/12/06 01:29:09;;;;;;;10.03;2.17;;;5.40;1.00;;;;;;4989462;28;20638;-74
2023/12/06 01:31:35;;;;;;;3.77;2.00;;;5.70;1.00;;;;;;4990442;28;20557;-74
2023/12/06 01:34:00;;;;;;;3.93;2.40;;;6.20;1.00;;;;;;4989170;28;20227;-74
2023/12/06 01:36:26;;;;;;;5.90;2.17;;;5.50;1.00;;;;;;4988895;28;20183;-75
2023/12/06 01:38:52;;;;;;;2.90;2.00;;;5.50;1.00;;;;;;4988887;28;20190;-74
2023/12/06 01:41:17;;;;;;;5.00;1.93;;;5.50;1.00;;;;;;4987723;28;20708;-74
2023/12/06 01:43:43;;;;;;;2.97;1.90;;;5.60;1.00;;;;;;4990224;28;20261;-74
2023/12/06 01:46:10;;;;;;;6.83;2.40;;;5.50;1.00;;;;;;4988241;28;20665;-74
2023/12/06 01:48:37;;;;;;;3.37;2.30;;;5.50;1.00;;;;;;4989468;28;20813;-74
2023/12/06 01:51:04;;;;;;;3.10;2.30;;;5.50;1.00;;;;;;4983494;28;20469;-75
2023/12/06 01:53:30;;;;;;;3.40;2.00;;;5.50;1.00;;;;;;4987152;28;20453;-74
2023/12/06 01:55:55;;;;;;;3.43;1.93;;;5.50;1.00;;;;;;4998386;28;20426;-73
2023/12/06 01:58:22;;;;;;;2.60;2.07;;;5.50;1.00;;;;;;4992125;28;20576;-74
2023/12/06 02:00:48;;;;;;;3.20;2.10;;;5.50;1.00;;;;;;4993898;28;20565;-74
2023/12/06 02:03:15;;;;;;;3.23;1.87;;;5.60;1.00;;;;;;4986571;28;20433;-74
2023/12/06 02:05:41;;;;;;;2.60;2.10;;;5.60;1.00;;;;;;4993129;28;20214;-74
2023/12/06 02:08:06;;;;;;;3.33;1.97;;;5.50;1.00;;;;;;4993131;28;20564;-74
2023/12/06 02:10:32;;;;;;;2.57;1.70;;;5.50;1.00;;;;;;4992834;28;20195;-74
2023/12/06 02:12:58;;;;;;;2.60;2.00;;;5.50;1.00;;;;;;4977366;28;20275;-74
2023/12/06 02:15:24;;;;;;;2.73;1.90;;;5.60;1.00;;;;;;4990947;28;20442;-74
2023/12/06 02:17:50;;;;;;;3.77;2.30;;;5.60;1.00;;;;;;4993671;28;20692;-74
2023/12/06 02:20:16;;;;;;;2.87;2.13;;;5.50;1.00;;;;;;4992427;28;20473;-74
2023/12/06 02:22:42;;;;;;;3.10;1.67;;;5.60;1.00;;;;;;4993616;28;20318;-73
2023/12/06 02:25:15;;;;;;;2.40;2.00;;;5.60;1.00;;;;;;4991817;28;20749;-73
2023/12/06 02:27:44;;;;;;;3.60;2.10;;;5.60;1.00;;;;;;4991496;28;20285;-74
2023/12/06 02:30:11;;;;;;;2.40;1.90;;;5.50;1.00;;;;;;4992429;28;20817;-75
2023/12/06 02:32:37;;;;;;;4.40;1.83;;;5.50;1.00;;;;;;4992307;28;20423;-74
2023/12/06 02:35:10;;;;;;;2.80;2.00;;;5.50;1.00;;;;;;4994513;28;20476;-73
2023/12/06 02:37:39;;;;;;;7.33;2.50;;;5.50;1.00;;;;;;4999443;28;20502;-74
2023/12/06 02:40:09;;;;;;;3.30;2.53;;;5.60;1.00;;;;;;4993694;28;20536;-75
2023/12/06 02:42:35;;;;;;;2.53;2.33;;;5.60;1.00;;;;;;4984755;28;20486;-73
2023/12/06 02:45:01;;;;;;;3.23;2.10;;;5.60;1.00;;;;;;4993765;28;20714;-74
2023/12/06 02:47:27;;;;;;;3.37;2.60;;;5.70;1.00;;;;;;4991824;28;20689;-74
2023/12/06 02:49:52;;;;;;;3.73;2.30;;;5.70;1.00;;;;;;4989888;28;20441;-73
2023/12/06 02:52:18;;;;;;;2.40;2.10;;;5.60;1.00;;;;;;4991962;28;20190;-74
2023/12/06 02:54:43;;;;;;;2.70;2.30;;;5.60;1.00;;;;;;4992612;28;20377;-73
2023/12/06 02:57:09;;;;;;;5.40;2.73;;;5.70;1.00;;;;;;4993248;28;20187;-74
2023/12/06 02:59:34;;;;;;;9.90;2.40;;;5.70;1.00;;;;;;4993276;28;20245;-74
2023/12/06 03:02:00;;;;;;;3.50;2.30;;;5.70;1.00;;;;;;4992768;28;20222;-74
2023/12/06 03:04:25;;;;;;;3.67;2.37;;;5.70;1.00;;;;;;4992590;28;20679;-74
2023/12/06 03:06:51;;;;;;;4.17;2.13;;;5.70;1.00;;;;;;4992965;28;20269;-74
2023/12/06 03:09:16;;;;;;;4.40;3.00;;;5.60;1.00;;;;;;4987945;28;20191;-75
2023/12/06 03:11:42;;;;;;;3.73;2.67;;;5.60;1.00;;;;;;4991957;28;20399;-74
2023/12/06 03:14:08;;;;;;;3.40;2.13;;;5.90;1.00;;;;;;4992468;28;20681;-73
2023/12/06 03:16:33;;;;;;;3.30;2.40;;;5.70;1.00;;;;;;4990465;28;20245;-74
2023/12/06 03:19:01;;;;;;;2.77;2.00;;;5.60;1.00;;;;;;4993657;28;20187;-74
2023/12/06 03:21:26;;;;;;;5.40;2.20;;;5.70;1.00;;;;;;4993132;28;20209;-73
2023/12/06 03:23:51;;;;;;;3.90;2.23;;;5.70;1.00;;;;;;4988016;28;20454;-73
2023/12/06 03:26:17;;;;;;;4.70;2.50;;;5.80;1.00;;;;;;4992915;28;20298;-75
2023/12/06 03:28:42;;;;;;;4.13;2.40;;;5.80;1.00;;;;;;4993452;28;20183;-73
2023/12/06 03:31:08;;;;;;;4.10;2.60;;;5.80;1.00;;;;;;4991910;28;20183;-73
2023/12/06 03:33:34;;;;;;;4.60;2.40;;;;;;;;;;4990322;28;20653;-74
2023/12/06 03:35:59;;;;;;;3.80;2.37;;;5.80;1.00;;;;;;4991363;28;20180;-74
2023/12/06 03:38:25;;;;;;;3.37;2.40;;;5.80;1.00;;;;;;4991918;28;20206;-73
2023/12/06 03:40:50;;;;;;;2.73;2.27;;;5.80;1.00;;;;;;4992461;28;20179;-74
2023/12/06 03:43:16;;;;;;;7.30;2.60;;;5.80;1.00;;;;;;4991826;28;20650;-74
2023/12/06 03:45:43;;;;;;;4.37;2.67;;;5.70;1.00;;;;;;4992303;28;20276;-74
2023/12/06 03:48:08;;;;;;;3.33;2.50;;;5.80;1.00;;;;;;4990019;28;20211;-73
2023/12/06 03:50:34;;;;;;;3.47;2.70;;;5.80;1.00;;;;;;4993058;28;20893;-74
2023/12/06 03:52:59;;;;;;;3.13;2.17;;;5.80;1.00;;;;;;4991934;28;20606;-73
2023/12/06 03:55:25;;;;;;;6.50;2.80;;;5.80;1.00;;;;;;4991356;28;20393;-73
2023/12/06 03:57:50;;;;;;;3.27;2.50;;;5.90;1.00;;;;;;4987523;28;20184;-74
2023/12/06 04:00:16;;;;;;;6.97;2.50;;;6.00;1.00;;;;;;4988748;28;20191;-73
2023/12/06 04:02:42;;;;;;;4.33;2.47;;;5.70;1.00;;;;;;4988750;28;20183;-73
2023/12/06 04:05:08;;;;;;;3.10;2.23;;;5.90;1.00;;;;;;4991351;28;20410;-73
2023/12/06 04:07:34;;;;;;;2.23;1.93;;;5.80;1.00;;;;;;4990293;28;20609;-73
2023/12/06 04:09:59;;;;;;;5.00;2.50;;;6.20;1.00;;;;;;4992254;28;20646;-73
2023/12/06 04:12:25;;;;;;;2.70;2.40;;;6.30;1.00;;;;;;4991660;28;20191;-73
2023/12/06 04:14:53;;;;;;;3.00;2.47;;;5.80;1.00;;;;;;4991797;28;20230;-73
2023/12/06 04:17:19;;;;;;;4.27;2.60;;;5.70;1.00;;;;;;4990787;28;20199;-72
2023/12/06 04:19:44;;;;;;;6.17;2.77;;;5.70;1.00;;;;;;4988727;28;20445;-73
2023/12/06 04:22:10;;;;;;;3.73;2.53;;;6.30;1.00;;;;;;4989767;28;20183;-73
2023/12/06 04:24:37;;;;;;;4.53;2.80;;;5.70;1.00;;;;;;4990470;28;20539;-72
2023/12/06 04:27:03;;;;;;;3.77;2.30;;;5.80;1.00;;;;;;4995687;28;20278;-73
2023/12/06 04:29:29;;;;;;;3.57;2.40;;;5.80;1.00;;;;;;4991754;28;20418;-73
2023/12/06 04:31:54;;;;;;;5.40;2.70;;;6.30;1.00;;;;;;4991131;28;20437;-74
2023/12/06 04:34:20;;;;;;;4.50;2.57;;;5.90;1.00;;;;;;4991918;28;20246;-73
2023/12/06 04:36:45;;;;;;;4.00;2.87;;;6.20;1.00;;;;;;4991515;28;20197;-73
2023/12/06 04:39:11;;;;;;;5.60;3.00;;;5.80;1.00;;;;;;4990448;28;20682;-73
2023/12/06 04:41:36;;;;;;;3.17;2.30;;;5.80;1.00;;;;;;4991440;28;20218;-74
2023/12/06 04:44:02;;;;;;;5.57;2.80;;;5.80;1.00;;;;;;4990810;28;20276;-73
2023/12/06 04:46:28;;;;;;;4.40;2.73;;;5.80;1.00;;;;;;4991927;28;20214;-73
2023/12/06 04:48:53;;;;;;;3.80;2.80;;;5.80;1.00;;;;;;4990143;28;20189;-73
2023/12/06 04:51:18;;;;;;;5.10;2.53;;;5.80;1.00;;;;;;4989984;28;20601;-73
2023/12/06 04:53:45;;;;;;;4.27;2.43;;;;;;;;;;4991102;28;20203;-73
2023/12/06 04:56:11;;;;;;;4.47;2.90;;;5.80;1.00;;;;;;4991554;28;20171;-72
2023/12/06 04:58:37;;;;;;;9.00;2.90;;;5.80;1.00;;;;;;4990592;28;20431;-73
2023/12/06 05:01:04;;;;;;;4.30;2.93;;;6.20;1.00;;;;;;4990932;28;20431;-73
2023/12/06 05:03:30;;;;;;;4.30;2.80;;;5.80;1.00;;;;;;4990789;28;20230;-73
2023/12/06 05:05:56;;;;;;;3.93;2.60;;;6.10;1.00;;;;;;4990522;28;20430;-73
2023/12/06 05:08:21;;;;;;;4.57;2.73;;;5.80;1.00;;;;;;4990826;28;20198;-73
2023/12/06 05:10:47;;;;;;;4.77;2.73;;;5.80;1.00;;;;;;4991171;28;20222;-73
2023/12/06 05:13:12;;;;;;;5.37;3.50;;;5.80;1.00;;;;;;4990692;28;20190;-72
2023/12/06 05:15:38;;;;;;;6.00;3.17;;;5.80;1.00;;;;;;4989299;28;20261;-73
2023/12/06 05:18:04;;;;;;;3.77;2.60;;;5.80;1.00;;;;;;4990723;28;20251;-73
2023/12/06 05:20:29;;;;;;;10.13;2.70;;;5.80;1.00;;;;;;4990367;28;20270;-72
2023/12/06 05:22:54;;;;;;;3.87;2.53;;;6.20;1.00;;;;;;4991090;28;20218;-72
2023/12/06 05:25:20;;;;;;;4.37;2.63;;;5.80;1.00;;;;;;4990658;28;20264;-72
2023/12/06 05:27:45;;;;;;;5.73;3.10;;;5.80;1.00;;;;;;4988393;28;20664;-74
2023/12/06 05:30:11;;;;;;;7.67;3.07;;;5.70;1.00;;;;;;4989166;28;20646;-75
2023/12/06 05:32:37;;;;;;;5.77;3.30;;;5.70;1.00;;;;;;4984808;28;20184;-73
2023/12/06 05:35:04;;;;;;;4.07;2.80;;;5.90;1.00;;;;;;4990678;28;20452;-73
2023/12/06 05:37:29;;;;;;;4.23;2.73;;;5.80;1.00;;;;;;4989780;28;20190;-73
2023/12/06 05:39:55;;;;;;;4.27;2.63;;;6.00;1.00;;;;;;4990249;28;20438;-73
2023/12/06 05:42:20;;;;;;;4.60;3.07;;;5.80;1.00;;;;;;4987733;28;20187;-73
2023/12/06 05:44:46;;;;;;;5.17;3.30;;;5.80;1.00;;;;;;4990148;28;20215;-73
2023/12/06 05:47:12;;;;;;;4.83;2.80;;;;;;;;;;4985526;28;20247;-74
2023/12/06 05:49:37;;;;;;;4.07;2.63;;;5.80;1.00;;;;;;4990757;28;20740;-74
2023/12/06 05:52:03;;;;;;;6.60;2.83;;;5.80;1.00;;;;;;4988736;28;20205;-73
2023/12/06 05:54:29;;;;;;;5.03;2.97;;;5.80;1.00;;;;;;4988671;28;20698;-73
2023/12/06 05:56:54;;;;;;;3.87;2.83;;;5.80;1.00;;;;;;4989428;28;20256;-74
2023/12/06 05:59:20;;;;;;;4.63;3.13;;;5.70;1.00;;;;;;4989110;28;20187;-73
2023/12/06 06:01:46;;;;;;;5.17;2.70;;;;;;;;;;4988348;28;20233;-73
2023/12/06 06:04:11;;;;;;;7.10;3.77;;;5.80;1.00;;;;;;4989292;28;20281;-74
2023/12/06 06:06:37;;;;;;;5.03;3.33;;;5.80;1.00;;;;;;4988832;28;20207;-73
2023/12/06 06:09:03;;;;;;;3.67;3.27;;;5.70;1.00;;;;;;4989438;28;20219;-73
2023/12/06 06:11:28;;;;;;;4.33;2.83;;;5.70;1.00;;;;;;4988032;28;20514;-73
2023/12/06 06:13:54;;;;;;;4.93;3.10;;;5.70;1.00;;;;;;4981286;28;20458;-73
2023/12/06 06:16:20;;;;;;;4.10;2.80;;;5.80;1.00;;;;;;4988842;28;20184;-73
2023/12/06 06:18:46;;;;;;;6.50;3.53;;;5.70;1.00;;;;;;4988510;28;20310;-73
2023/12/06 06:21:11;;;;;;;4.57;3.23;;;5.80;1.00;;;;;;4988839;28;20282;-73
2023/12/06 06:23:37;;;;;;;6.80;3.30;;;5.80;1.00;;;;;;4984469;28;20215;-73
2023/12/06 06:26:03;;;;;;;7.37;3.77;;;5.80;1.00;;;;;;4987337;28;20179;-73
2023/12/06 06:28:29;;;;;;;9.30;3.90;;;5.70;1.00;;;;;;4983762;28;20458;-73
2023/12/06 06:30:55;;;;;;;10.70;3.63;;;5.70;1.00;;;;;;4989082;28;20194;-72
2023/12/06 06:33:21;;;;;;;8.47;3.83;;;5.90;1.00;;;;;;4987922;28;20438;-73
2023/12/06 06:35:46;;;;;;;4.93;3.20;;;5.80;1.00;;;;;;4988008;28;20211;-73
2023/12/06 06:38:12;;;;;;;6.97;3.00;;;5.70;1.00;;;;;;4990253;28;20183;-74
2023/12/06 06:40:37;;;;;;;9.77;3.97;;;5.70;1.00;;;;;;4991220;28;20672;-73
2023/12/06 06:43:03;;;;;;;6.10;3.60;;;6.10;1.00;;;;;;4992988;28;20552;-73
2023/12/06 06:45:28;;;;;;;5.30;3.33;;;5.90;1.00;;;;;;4992761;28;20206;-73
2023/12/06 06:47:54;;;;;;;5.60;3.90;;;5.70;1.00;;;;;;4994370;28;20214;-72
2023/12/06 06:50:20;;;;;;;6.87;3.90;;;5.70;1.00;;;;;;4991236;28;20179;-73
2023/12/06 06:52:46;;;;;;;5.67;3.60;;;5.80;1.00;;;;;;4991667;28;20218;-74
2023/12/06 06:55:11;;;;;;;4.87;3.17;;;5.80;1.00;;;;;;4991005;28;20203;-73
2023/12/06 06:57:37;;;;;;;7.40;3.60;;;5.80;1.00;;;;;;4990833;28;20608;-75
2023/12/06 07:00:04;;;;;;;6.60;3.70;;;5.60;1.00;;;;;;4989364;28;20618;-73
2023/12/06 07:02:30;;;;;;;6.40;3.50;;;;;;;;;;4987882;28;20193;-73
2023/12/06 07:04:55;;;;;;;6.67;3.90;;;5.70;1.00;;;;;;4987028;28;20446;-73
2023/12/06 07:07:21;;;;;;;6.23;3.90;;;6.10;1.00;;;;;;4984212;28;20610;-74
2023/12/06 07:09:47;;;;;;;6.90;4.23;;;5.70;1.00;;;;;;4991263;28;20243;-74
2023/12/06 07:12:12;;;;;;;6.83;3.83;;;5.70;1.00;;;;;;4992398;28;20554;-74
2023/12/06 07:14:38;;;;;;;7.20;3.90;;;5.70;1.00;;;;;;4984122;28;20198;-74
2023/12/06 07:17:04;;;;;;;9.40;4.53;;;5.60;1.00;;;;;;4991985;28;20261;-73
2023/12/06 07:19:30;;;;;;;7.77;4.40;;;5.50;1.00;;;;;;4991068;28;20442;-74
2023/12/06 07:21:56;;;;;;;9.97;4.27;;;5.40;1.00;;;;;;4986223;28;20431;-73
2023/12/06 07:24:21;;;;;;;7.63;4.43;;;5.30;1.00;;;;;;4988212;28;20210;-74
2023/12/06 07:26:47;;;;;;;8.10;4.60;;;5.30;1.00;;;;;;4990309;28;20710;-74
2023/12/06 07:29:15;;;;;;;8.07;4.90;;;5.30;1.00;;;;;;4990328;28;20219;-75
2023/12/06 07:31:41;;;;;;;7.47;4.80;;;5.20;1.00;;;;;;4989412;28;20558;-74
2023/12/06 07:34:07;;;;;;;8.33;4.90;;;;;;;;;;4991556;28;20453;-75
2023/12/06 07:36:32;;;;;;;9.80;5.60;;;5.20;1.00;;;;;;4992099;28;20617;-74
2023/12/06 07:38:58;;;;;;;8.43;4.97;;;5.20;1.00;;;;;;4984118;28;20737;-74
2023/12/06 07:41:23;;;;;;;9.80;5.53;;;5.20;1.00;;;;;;4991127;28;20183;-74
2023/12/06 07:43:49;;;;;;;8.77;5.13;;;5.60;1.00;;;;;;4991812;28;20230;-74
2023/12/06 07:46:15;;;;;;;8.50;4.80;;;5.20;1.00;;;;;;4985896;28;20195;-73
2023/12/06 07:48:40;;;;;;;8.00;4.80;;;5.20;1.00;;;;;;4990174;28;20195;-74
2023/12/06 07:51:06;;;;;;;9.20;5.50;;;5.60;1.00;;;;;;4989426;28;20175;-73
2023/12/06 07:53:31;;;;;;;12.47;6.13;;;5.50;1.00;;;;;;4978074;28;20195;-73
2023/12/06 07:55:58;;;;;;;8.53;6.00;;;7.60;1.00;;;;;;4987674;28;20566;-72
2023/12/06 07:58:30;;;;;;;8.03;4.90;;;6.30;1.00;;;;;;4989951;28;20183;-73
2023/12/06 08:00:59;;;;;;;8.33;5.10;;;6.10;1.00;;;;;;4985895;28;20458;-73
2023/12/06 08:03:31;;;;;;;11.57;5.50;;;6.00;1.00;;;;;;4986162;28;20920;-72
2023/12/06 08:05:59;;;;;;;11.40;5.70;;;5.80;1.00;;;;;;4996749;28;20426;-71
2023/12/06 08:08:27;;;;;;;9.40;5.27;;;5.60;1.00;;;;;;4987259;28;20532;-72
2023/12/06 08:10:53;;;;;;;11.27;6.00;;;5.40;1.00;;;;;;4989855;28;20418;-73
2023/12/06 08:13:19;;;;;;;7.63;4.83;;;5.70;1.00;;;;;;4981803;28;20928;-72
2023/12/06 08:15:45;;;;;;;8.63;5.23;;;5.30;1.00;;;;;;4988738;28;20450;-72
2023/12/06 08:18:10;;;;;;;7.50;4.63;;;5.70;1.00;;;;;;4991927;28;20640;-72
2023/12/06 08:20:36;;;;;;;6.93;4.30;;;5.30;1.00;;;;;;4990796;28;20183;-71
2023/12/06 08:23:03;;;;;;;6.53;4.37;;;5.60;1.00;;;;;;4990460;28;20217;-71
2023/12/06 08:25:28;;;;;;;8.47;4.53;;;5.20;1.00;;;;;;4990329;28;20561;-71
2023/12/06 08:27:54;;;;;;;5.47;4.00;;;5.10;1.00;;;;;;4989189;28;20877;-71
2023/12/06 08:30:20;;;;;;;7.30;4.20;;;5.00;1.00;;;;;;4987684;28;20179;-71
2023/12/06 08:32:46;;;;;;;7.13;4.60;;;5.10;1.00;;;;;;4990349;28;20194;-73
2023/12/06 08:35:12;;;;;;;6.80;4.10;;;5.20;1.00;;;;;;4989654;28;20199;-71
2023/12/06 08:37:40;;;;;;;6.90;4.13;;;5.40;1.00;;;;;;4989751;28;20462;-73
2023/12/06 08:40:07;;;;;;;6.70;3.70;;;5.10;1.00;;;;;;4989632;28;20430;-73
2023/12/06 08:42:34;;;;;;;7.50;4.43;;;5.00;1.00;;;;;;4984892;28;20430;-70
2023/12/06 08:44:59;;;;;;;8.53;4.57;;;5.00;1.00;;;;;;4989902;28;20991;-73
2023/12/06 08:47:25;;;;;;;6.63;4.17;;;5.00;1.00;;;;;;4989961;28;20461;-72
2023/12/06 08:49:51;;;;;;;6.00;3.70;;;5.00;1.00;;;;;;4989484;28;20294;-71
2023/12/06 08:52:16;;;;;;;6.73;4.17;;;5.00;1.00;;;;;;4989866;28;20183;-73
2023/12/06 08:54:42;;;;;;;5.60;3.60;;;5.00;1.00;;;;;;4988992;28;20261;-72
2023/12/06 08:57:08;;;;;;;8.30;4.50;;;5.40;1.00;;;;;;4989829;28;20241;-72
2023/12/06 08:59:33;;;;;;;6.40;3.67;;;5.10;1.00;;;;;;4987143;28;20194;-70
2023/12/06 09:01:59;;;;;;;7.23;4.10;;;5.10;1.00;;;;;;4988295;28;20194;-72
2023/12/06 09:04:24;;;;;;;6.00;3.97;;;5.10;1.00;;;;;;4985592;28;20207;-73
2023/12/06 09:06:50;;;;;;;6.60;4.37;;;5.20;1.00;;;;;;4989227;28;20213;-71
2023/12/06 09:09:17;;;;;;;6.10;3.97;;;5.30;1.00;;;;;;4982933;28;20249;-72
2023/12/06 09:11:44;;;;;;;6.83;4.20;;;5.20;1.00;;;;;;4988685;28;20184;-70
2023/12/06 09:14:09;;;;;;;8.80;4.60;;;5.60;1.00;;;;;;4989859;28;20535;-71
2023/12/06 09:16:36;;;;;;;7.13;4.40;;;5.30;1.00;;;;;;4988408;28;20742;-72
2023/12/06 09:19:03;;;;;;;6.90;3.97;;;5.20;1.00;;;;;;4987183;28;20201;-72
2023/12/06 09:21:43;;;;;;;7.80;4.33;;;5.60;1.00;;;;;;4989693;28;20469;-71
2023/12/06 09:24:13;;;;;;;10.10;5.60;;;5.30;1.00;;;;;;4989283;28;20500;-71
2023/12/06 09:26:39;;;;;;;8.00;4.33;;;5.30;1.00;;;;;;4985191;28;20475;-71
2023/12/06 09:29:08;;;;;;;7.30;4.83;;;5.30;1.00;;;;;;4982282;28;20440;-70
2023/12/06 09:31:35;;;;;;;6.53;4.53;;;5.30;1.00;;;;;;4995470;28;20453;-71
2023/12/06 09:34:01;;;;;;;7.60;4.87;;;5.30;1.00;;;;;;4989228;28;20533;-72
2023/12/06 09:36:30;;;;;;;6.57;4.60;;;5.40;1.00;;;;;;4990036;28;20515;-72
2023/12/06 09:38:59;;;;;;;6.00;4.00;;;5.80;1.00;;;;;;4984694;28;20466;-72
2023/12/06 09:41:30;;;;;;;6.33;4.20;;;5.30;1.00;;;;;;4988964;28;20501;-71
2023/12/06 09:43:57;;;;;;;7.43;4.40;;;5.30;1.00;;;;;;4987833;28;20964;-73
2023/12/06 09:46:23;;;;;;;7.17;3.97;;;5.40;1.00;;;;;;4986078;28;20427;-72
2023/12/06 09:48:49;;;;;;;6.77;3.40;;;5.30;1.00;;;;;;4987875;28;20442;-73
2023/12/06 09:51:15;;;;;;;6.90;3.97;;;5.30;1.00;;;;;;4989810;28;20183;-72
2023/12/06 09:53:41;;;;;;;9.20;4.90;;;5.40;1.00;;;;;;4987959;28;20442;-71
2023/12/06 09:56:09;;;;;;;6.83;4.20;;;5.30;1.00;;;;;;4986168;28;20900;-72
2023/12/06 09:58:35;;;;;;;11.60;4.50;;;5.50;1.00;;;;;;4986720;28;20554;-72
2023/12/06 10:01:01;;;;;;;6.83;4.23;;;5.60;1.00;;;;;;4988506;28;20438;-71
2023/12/06 10:03:27;;;;;;;7.83;4.20;;;;;;;;;;4990223;28;20191;-72
2023/12/06 10:06:03;;;;;;;8.90;4.50;;;5.50;1.00;;;;;;4983319;28;20191;-71
2023/12/06 10:08:30;;;;;;;6.57;4.63;;;5.50;1.00;;;;;;4991369;28;20461;-72
2023/12/06 10:11:09;;;;;;;7.37;4.20;;;5.50;1.00;;;;;;4989964;28;20821;-71
2023/12/06 10:13:36;;;;;;;8.47;4.77;;;5.70;1.00;;;;;;4993885;28;20430;-71
2023/12/06 10:16:02;;;;;;;7.77;4.90;;;5.70;1.00;;;;;;4990571;28;20485;-69
2023/12/06 10:18:29;;;;;;;5.47;4.10;;;5.70;1.00;;;;;;4988261;28;20805;-72
2023/12/06 10:20:55;;;;;;;7.50;4.03;;;5.60;1.00;;;;;;4991644;28;20795;-72
2023/12/06 10:23:21;;;;;;;6.17;4.23;;;5.50;1.00;;;;;;4991717;28;20434;-72
2023/12/06 10:25:47;;;;;;;6.27;4.17;;;5.50;1.00;;;;;;4990559;28;20933;-72
2023/12/06 10:28:14;;;;;;;5.80;4.10;;;5.60;1.00;;;;;;5013800;23;20231;-74
2023/12/06 10:30:39;;;;;;;7.20;4.67;;;5.60;1.00;;;;;;4990108;28;20426;-75
2023/12/06 10:33:06;;;;;;;6.33;4.20;;;5.70;1.00;;;;;;4985076;28;20425;-74
2023/12/06 10:35:33;;;;;;;7.33;4.20;;;5.80;1.00;;;;;;4989360;28;20558;-75
2023/12/06 10:37:59;;;;;;;6.00;3.97;;;6.20;1.00;;;;;;4991049;28;20457;-73
2023/12/06 10:40:26;;;;;;;7.50;4.33;;;5.90;1.00;;;;;;4990994;28;20426;-73
2023/12/06 10:42:59;;;;;;;8.67;5.43;;;5.90;1.00;;;;;;4989151;28;20778;-74
2023/12/06 10:45:25;;;;;;;8.10;4.63;;;5.90;1.00;;;;;;4985711;28;20931;-74
2023/12/06 10:47:53;;;;;;;7.10;4.13;;;6.10;1.00;;;;;;4992131;28;20482;-74
2023/12/06 10:50:19;;;;;;;10.10;5.03;;;6.10;1.00;;;;;;4990111;28;20182;-75
2023/12/06 10:52:47;;;;;;;8.20;4.50;;;6.60;1.00;;;;;;4990314;28;20462;-74
2023/12/06 10:55:15;;;;;;;7.50;4.90;;;6.70;1.00;;;;;;4990960;28;20510;-73
2023/12/06 10:57:42;;;;;;;8.27;4.53;;;6.10;1.00;;;;;;4984766;28;20436;-71
2023/12/06 11:00:08;;;;;;;9.53;4.80;;;6.10;1.00;;;;;;4991176;28;20433;-71
2023/12/06 11:02:34;;;;;;;5.73;4.00;;;6.20;1.00;;;;;;4990913;28;20430;-77
2023/12/06 11:05:05;;;;;;;8.20;4.73;;;6.20;1.00;;;;;;4989231;28;20444;-73
2023/12/06 11:07:45;;;;;;;6.67;4.27;;;6.30;1.00;;;;;;4987398;28;20206;-75
2023/12/06 11:10:32;;;;;;;9.97;5.03;;;6.30;1.00;;;;;;4991060;28;20517;-71
2023/12/06 11:13:19;;;;;;;10.00;4.60;;;6.20;1.00;;;;;;4987696;28;20425;-71
2023/12/06 11:16:05;;;;;;;854.93;237.63;;;6.20;1.00;;;;;;4991025;28;20430;-76
2023/12/06 11:18:46;;;;;;;303.57;77.53;;;6.60;1.00;;;;;;4983746;28;20446;-73
2023/12/06 11:21:13;;;;;;;15.00;8.47;;;7.10;1.00;;;;;;4989156;28;20429;-74
2023/12/06 11:23:41;;;;;;;10.43;6.40;;;7.20;1.00;;;;;;4991498;28;20796;-75
2023/12/06 11:26:06;;;;;;;11.60;5.70;;;7.10;1.00;;;;;;4991184;28;20546;-75
2023/12/06 11:28:40;;;;;;;8.00;4.80;;;6.70;1.00;;;;;;4990795;28;20973;-75
2023/12/06 11:31:06;;;;;;;14.67;6.20;;;7.00;1.00;;;;;;4990992;28;20190;-75
2023/12/06 11:33:32;;;;;;;12.00;5.70;;;6.60;1.00;;;;;;4991712;28;20537;-74
2023/12/06 11:35:58;;;;;;;8.23;4.67;;;6.60;1.00;;;;;;4990442;28;20543;-75
2023/12/06 11:38:39;;;;;;;7.63;4.80;;;6.90;1.00;;;;;;4982516;28;20298;-75
2023/12/06 11:41:05;;;;;;;10.67;5.10;;;6.50;1.00;;;;;;4988768;28;20426;-74
2023/12/06 11:43:35;;;;;;;9.43;5.23;;;6.80;1.00;;;;;;4989855;28;20491;-74
2023/12/06 11:46:02;;;;;;;6.10;4.80;;;6.90;1.00;;;;;;4991364;28;20223;-71
2023/12/06 11:48:28;;;;;;;5.27;3.90;;;6.50;1.00;;;;;;4986107;28;20851;-75
2023/12/06 11:50:58;;;;;;;7.43;4.47;;;6.50;1.00;;;;;;4990635;28;20427;-73
2023/12/06 11:53:26;;;;;;;7.73;4.57;;;6.50;1.00;;;;;;4989146;28;20253;-75
2023/12/06 11:55:53;;;;;;;7.13;4.40;;;7.10;1.00;;;;;;4991057;28;20433;-73
2023/12/06 11:58:20;;;;;;;10.70;4.73;;;7.10;1.00;;;;;;4988256;28;20464;-74
2023/12/06 12:00:49;;;;;;;7.33;4.67;;;6.70;1.00;;;;;;4986686;28;20524;-74
2023/12/06 12:03:15;;;;;;;6.53;4.10;;;6.70;1.00;;;;;;4982896;28;20433;-76
2023/12/06 12:05:44;;;;;;;6.73;4.73;;;6.60;1.00;;;;;;4989903;28;20461;-73
2023/12/06 12:08:14;;;;;;;6.80;4.27;;;6.60;1.00;;;;;;4988552;28;20485;-72
2023/12/06 12:10:41;;;;;;;7.23;4.40;;;6.60;1.00;;;;;;4990643;28;20427;-76
2023/12/06 12:13:19;;;;;;;9.03;4.83;;;6.50;1.00;;;;;;4987316;28;21022;-74
2023/12/06 12:15:53;;;;;;;9.90;5.27;;;6.50;1.00;;;;;;4989673;28;20446;-74
2023/12/06 12:18:19;;;;;;;8.73;4.77;;;6.50;1.00;;;;;;4990326;28;20445;-75
2023/12/06 12:20:45;;;;;;;9.30;4.40;;;6.50;1.00;;;;;;4990213;28;20517;-73
2023/12/06 12:23:11;;;;;;;8.23;5.30;;;6.80;1.00;;;;;;4987612;28;20854;-74
2023/12/06 12:25:48;;;;;;;10.50;4.87;;;6.50;1.00;;;;;;4990240;28;20197;-71
2023/12/06 12:28:21;;;;;;;12.70;5.30;;;6.50;1.00;;;;;;4986770;28;20488;-74
2023/12/06 12:30:51;;;;;;;8.67;4.73;;;6.90;1.00;;;;;;4983477;28;20430;-74
2023/12/06 12:33:17;;;;;;;8.33;5.47;;;6.40;1.00;;;;;;4989633;28;20488;-75
2023/12/06 12:35:43;;;;;;;11.70;6.20;;;6.50;1.00;;;;;;4990328;28;20426;-72
2023/12/06 12:38:09;;;;;;;15.53;7.93;;;6.50;1.00;;;;;;4993111;28;20454;-73
2023/12/06 12:40:36;;;;;;;11.03;6.30;;;7.00;1.00;;;;;;4990678;28;20191;-74
2023/12/06 12:43:03;;;;;;;10.30;5.03;;;6.30;1.00;;;;;;4989159;28;20877;-72
2023/12/06 12:45:28;;;;;;;9.57;5.70;;;6.40;1.00;;;;;;4987850;28;20508;-74
2023/12/06 12:47:55;;;;;;;7.20;4.63;;;6.40;1.00;;;;;;4987290;28;20462;-74
2023/12/06 12:50:21;;;;;;;8.87;5.30;;;6.40;1.00;;;;;;4989166;28;20587;-75
2023/12/06 12:52:50;;;;;;;9.10;4.73;;;6.80;1.00;;;;;;4989871;28;20999;-74
2023/12/06 12:55:18;;;;;;;12.20;6.40;;;6.40;1.00;;;;;;4984645;28;20454;-74
2023/12/06 12:57:45;;;;;;;7.87;5.17;;;6.50;1.00;;;;;;4989149;28;20450;-75
2023/12/06 13:00:23;;;;;;;9.53;5.37;;;6.40;1.00;;;;;;4986348;28;20432;-75
2023/12/06 13:02:50;;;;;;;8.47;5.40;;;6.50;1.00;;;;;;4989844;28;20418;-74
2023/12/06 13:05:17;;;;;;;8.83;4.93;;;6.60;1.00;;;;;;4990083;28;20496;-75